createdAt,value
2019-01-14T06:33:25.286Z,105.73
2019-01-14T06:35:55.166Z,41.97
2019-01-14T06:38:24.755Z,34.10
2019-01-14T06:40:54.157Z,24.53
2019-01-14T06:43:23.889Z,25.40
2019-01-14T06:45:53.589Z,20.47
2019-01-14T06:48:23.299Z,26.70
2019-01-14T06:50:52.703Z,29.87
2019-01-14T06:53:22.377Z,26.73
2019-01-14T06:55:52.134Z,20.90
2019-01-14T06:58:21.827Z,14.53
2019-01-14T07:00:51.226Z,18.73
2019-01-14T07:03:20.629Z,75.63
2019-01-14T07:05:50.287Z,93.30
2019-01-14T07:08:20.040Z,41.40
2019-01-14T07:10:51.124Z,39.67
2019-01-14T07:13:20.803Z,47.57
2019-01-14T07:15:50.547Z,47.83
2019-01-14T07:18:20.321Z,44.27
2019-01-14T07:20:49.966Z,50.97
2019-01-14T07:23:19.663Z,112.63
2019-01-14T07:25:49.225Z,73.43
2019-01-14T07:28:18.644Z,76.60
2019-01-14T07:30:48.270Z,87.93
2019-01-14T07:33:17.881Z,63.97
2019-01-14T07:35:47.554Z,52.20
2019-01-14T07:38:17.084Z,52.90
2019-01-14T07:40:46.883Z,76.03
2019-01-14T07:43:16.552Z,91.07
2019-01-14T07:45:46.277Z,70.57
2019-01-14T07:48:16.074Z,54.77
2019-01-14T07:50:45.794Z,43.83
2019-01-14T07:53:15.534Z,43.30
2019-01-14T07:55:45.338Z,74.43
2019-01-14T07:58:14.797Z,62.73
2019-01-14T08:00:44.185Z,45.23
2019-01-14T08:03:13.858Z,29.07
2019-01-14T08:05:43.662Z,25.87
2019-01-14T08:08:14.117Z,32.57
2019-01-14T08:10:43.739Z,35.53
2019-01-14T08:13:13.402Z,35.00
2019-01-14T08:15:43.164Z,35.57
2019-01-14T08:18:13.029Z,30.53
2019-01-14T08:20:42.424Z,32.73
2019-01-14T08:23:11.828Z,26.77
2019-01-14T08:25:41.656Z,29.03
2019-01-14T08:28:11.445Z,27.47
2019-01-14T08:30:41.123Z,29.77
2019-01-14T08:33:10.896Z,31.87
2019-01-14T08:35:40.572Z,46.07
2019-01-14T08:38:10.151Z,27.90
2019-01-14T08:40:39.638Z,30.03
2019-01-14T08:43:09.109Z,59.90
2019-01-14T08:45:38.675Z,39.97
2019-01-14T08:48:08.297Z,34.50
2019-01-14T08:50:37.951Z,31.70
2019-01-14T08:53:07.727Z,42.50
2019-01-14T08:55:37.419Z,40.93
2019-01-14T08:58:07.244Z,40.83
2019-01-14T09:00:37.115Z,35.80
2019-01-14T09:03:06.868Z,27.40
2019-01-14T09:05:36.579Z,30.63
2019-01-14T09:08:06.375Z,32.63
2019-01-14T09:10:35.947Z,38.10
2019-01-14T09:13:05.918Z,37.47
2019-01-14T09:15:35.316Z,36.77
2019-01-14T09:18:05.121Z,49.27
2019-01-14T09:20:35.062Z,41.47
2019-01-14T09:23:04.840Z,46.90
2019-01-14T09:25:34.546Z,40.30
2019-01-14T09:28:04.427Z,60.60
2019-01-14T09:30:34.282Z,64.87
2019-01-14T09:33:03.752Z,56.57
2019-01-14T09:35:33.385Z,51.73
2019-01-14T09:38:02.793Z,40.50
2019-01-14T09:40:32.469Z,34.27
2019-01-14T09:43:02.148Z,57.97
2019-01-14T09:45:31.574Z,58.97
2019-01-14T09:48:00.982Z,57.93
2019-01-14T09:50:30.467Z,49.13
2019-01-14T09:53:00.017Z,58.47
2019-01-14T09:55:29.752Z,48.80
2019-01-14T09:57:59.363Z,47.40
2019-01-14T10:00:28.814Z,43.43
2019-01-14T10:02:58.234Z,40.83
2019-01-14T10:05:27.962Z,37.43
2019-01-14T10:07:57.442Z,32.40
2019-01-14T10:10:26.942Z,36.87
2019-01-14T10:12:56.343Z,64.13
2019-01-14T10:15:27.909Z,35.30
2019-01-14T10:18:00.802Z,34.53
2019-01-14T10:20:30.212Z,17.30
2019-01-14T10:22:59.732Z,17.70
2019-01-14T10:25:29.386Z,17.03
2019-01-14T10:27:59.227Z,17.57
2019-01-14T10:30:29.002Z,17.00
2019-01-14T10:32:58.484Z,27.40
2019-01-14T10:35:27.905Z,27.40
2019-01-14T10:37:57.310Z,22.87
2019-01-14T10:40:26.887Z,21.67
2019-01-14T10:42:56.359Z,18.10
2019-01-14T10:45:25.815Z,20.07
2019-01-14T10:47:55.224Z,19.23
2019-01-14T10:50:24.817Z,23.87
2019-01-14T10:52:54.579Z,24.73
2019-01-14T10:55:23.970Z,28.20
2019-01-14T10:57:53.382Z,21.43
2019-01-14T11:00:28.005Z,19.60
2019-01-14T11:02:58.045Z,18.97
2019-01-14T11:05:31.728Z,18.17
2019-01-14T11:08:01.487Z,19.70
2019-01-14T11:10:30.980Z,18.70
2019-01-14T11:13:00.364Z,15.37
2019-01-14T11:15:29.870Z,15.80
2019-01-14T11:17:59.642Z,16.37
2019-01-14T11:20:32.925Z,16.93
2019-01-14T11:23:03.263Z,16.00
2019-01-14T11:25:32.969Z,15.77
2019-01-14T11:28:02.453Z,16.40
2019-01-14T11:30:33.544Z,15.67
2019-01-14T11:33:02.905Z,13.77
2019-01-14T11:35:32.701Z,14.50
2019-01-14T11:38:02.450Z,18.83
2019-01-14T11:40:39.832Z,18.53
2019-01-14T11:43:09.626Z,17.67
2019-01-14T11:45:39.119Z,14.80
2019-01-14T11:48:08.595Z,13.43
2019-01-14T11:50:38.030Z,10.00
2019-01-14T11:53:07.712Z,8.17
2019-01-14T11:55:37.114Z,6.13
2019-01-14T11:58:06.644Z,9.30
2019-01-14T12:00:36.969Z,8.27
2019-01-14T12:03:06.590Z,5.37
2019-01-14T12:05:36.194Z,5.77
2019-01-14T12:08:06.819Z,6.70
2019-01-14T12:10:36.404Z,6.70
2019-01-14T12:13:06.052Z,9.90
2019-01-14T12:15:35.425Z,5.93
2019-01-14T12:18:05.531Z,6.10
2019-01-14T12:20:35.294Z,4.87
2019-01-14T12:23:05.052Z,4.10
2019-01-14T12:25:34.792Z,4.80
2019-01-14T12:28:04.683Z,7.40
2019-01-14T12:30:39.564Z,24.73
2019-01-14T12:33:08.978Z,63.40
2019-01-14T12:35:38.483Z,25.10
2019-01-14T12:38:08.211Z,11.33
2019-01-14T12:40:37.855Z,16.50
2019-01-14T12:43:07.262Z,7.27
2019-01-14T12:45:37.042Z,22.57
2019-01-14T12:48:06.928Z,25.10
2019-01-14T12:50:36.889Z,12.17
2019-01-14T12:53:06.419Z,28.10
2019-01-14T12:55:36.322Z,26.60
2019-01-14T12:58:06.270Z,74.20
2019-01-14T13:00:35.853Z,51.00
2019-01-14T13:03:05.550Z,29.20
2019-01-14T13:05:35.722Z,13.50
2019-01-14T13:08:05.783Z,14.70
2019-01-14T13:10:35.182Z,11.87
2019-01-14T13:13:04.941Z,10.30
2019-01-14T13:15:34.607Z,20.47
2019-01-14T13:18:05.562Z,14.87
2019-01-14T13:20:35.675Z,8.20
2019-01-14T13:23:05.999Z,18.07
2019-01-14T13:25:35.575Z,33.10
2019-01-14T13:28:05.298Z,39.83
2019-01-14T13:30:34.787Z,21.37
2019-01-14T13:33:05.060Z,22.30
2019-01-14T13:35:34.737Z,37.07
2019-01-14T13:38:04.544Z,38.20
2019-01-14T13:40:34.428Z,41.20
2019-01-14T13:43:03.901Z,27.90
2019-01-14T13:45:33.776Z,41.73
2019-01-14T13:48:03.665Z,32.07
2019-01-14T13:50:33.142Z,14.50
2019-01-14T13:53:02.863Z,21.30
2019-01-14T13:55:32.757Z,21.47
2019-01-14T13:58:02.649Z,26.27
2019-01-14T14:00:32.209Z,18.00
2019-01-14T14:03:01.927Z,19.53
2019-01-14T14:05:31.423Z,17.73
2019-01-14T14:08:01.265Z,11.00
2019-01-14T14:10:32.197Z,44.90
2019-01-14T14:13:01.822Z,38.17
2019-01-14T14:15:31.637Z,46.70
2019-01-14T14:18:01.545Z,39.23
2019-01-14T14:20:31.232Z,53.37
2019-01-14T14:23:00.657Z,63.50
2019-01-14T14:25:30.177Z,100.07
2019-01-14T14:27:59.984Z,48.53
2019-01-14T14:30:35.279Z,34.80
2019-01-14T14:33:05.321Z,27.43
2019-01-14T14:35:34.918Z,29.17
2019-01-14T14:38:05.588Z,26.93
2019-01-14T14:40:35.041Z,25.20
2019-01-14T14:43:04.844Z,19.03
2019-01-14T14:45:34.699Z,30.60
2019-01-14T14:48:04.840Z,16.87
2019-01-14T14:50:34.608Z,13.43
2019-01-14T14:53:04.641Z,15.37
2019-01-14T14:55:34.396Z,13.07
2019-01-14T14:58:04.363Z,18.73
2019-01-14T15:00:34.046Z,14.80
2019-01-14T15:03:04.096Z,10.73
2019-01-14T15:05:33.821Z,14.37
2019-01-14T15:08:03.498Z,15.87
2019-01-14T15:10:33.115Z,17.07
2019-01-14T15:13:02.825Z,28.07
2019-01-14T15:15:32.613Z,11.33
2019-01-14T15:18:02.406Z,20.67
2019-01-14T15:20:32.086Z,19.27
2019-01-14T15:23:01.573Z,16.50
2019-01-14T15:25:30.981Z,37.67
2019-01-14T15:28:00.628Z,23.23
2019-01-14T15:30:31.464Z,27.07
2019-01-14T15:33:01.228Z,45.77
2019-01-14T15:35:31.112Z,52.67
2019-01-14T15:38:00.844Z,41.03
2019-01-14T15:40:30.468Z,30.37
2019-01-14T15:43:00.240Z,21.17
2019-01-14T15:45:29.939Z,31.50
2019-01-14T15:47:59.544Z,24.10
2019-01-14T15:50:29.032Z,35.33
2019-01-14T15:52:58.441Z,17.63
2019-01-14T15:55:28.664Z,17.53
2019-01-14T15:57:59.483Z,20.30
2019-01-14T16:00:28.959Z,14.33
2019-01-14T16:03:00.981Z,13.20
2019-01-14T16:05:30.455Z,17.87
2019-01-14T16:08:00.216Z,16.97
2019-01-14T16:10:29.603Z,18.47
2019-01-14T16:12:59.287Z,19.43
2019-01-14T16:15:28.860Z,21.50
2019-01-14T16:17:58.356Z,23.37
2019-01-14T16:20:28.444Z,20.57
2019-01-14T16:22:58.229Z,28.60
2019-01-14T16:25:28.076Z,28.03
2019-01-14T16:27:57.889Z,25.40
2019-01-14T16:30:30.430Z,22.07
2019-01-14T16:33:00.275Z,26.37
2019-01-14T16:35:29.855Z,57.00
2019-01-14T16:37:59.483Z,30.23
2019-01-14T16:40:29.155Z,24.47
2019-01-14T16:42:58.911Z,21.27
2019-01-14T16:45:28.889Z,42.43
2019-01-14T16:47:58.691Z,87.40
2019-01-14T16:50:28.377Z,60.60
2019-01-14T16:52:57.858Z,148.87
2019-01-14T16:55:35.552Z,84.37
2019-01-14T16:58:05.294Z,47.70
2019-01-14T17:00:35.199Z,38.57
2019-01-14T17:03:04.950Z,61.53
2019-01-14T17:05:35.607Z,62.67
2019-01-14T17:08:05.630Z,38.27
2019-01-14T17:10:35.327Z,33.00
2019-01-14T17:13:05.027Z,31.37
2019-01-14T17:15:34.909Z,28.27
2019-01-14T17:18:04.766Z,46.83
2019-01-14T17:20:34.479Z,20.37
2019-01-14T17:23:04.332Z,33.13
2019-01-14T17:25:34.204Z,23.50
2019-01-14T17:28:03.830Z,30.77
2019-01-14T17:30:33.244Z,78.70
2019-01-14T17:33:02.922Z,58.20
2019-01-14T17:35:32.685Z,24.40
2019-01-14T17:38:02.368Z,38.33
2019-01-14T17:40:46.942Z,70.23
2019-01-14T17:43:16.719Z,24.47
2019-01-14T17:45:50.567Z,102.87
2019-01-14T17:48:20.728Z,24.93
2019-01-14T17:50:50.529Z,56.17
2019-01-14T17:53:20.658Z,22.50
2019-01-14T17:55:51.980Z,16.43
2019-01-14T17:58:21.408Z,15.37
2019-01-14T18:00:51.254Z,14.33
2019-01-14T18:03:21.526Z,10.10
2019-01-14T18:05:51.169Z,6.67
2019-01-14T18:08:20.877Z,6.33
2019-01-14T18:10:50.670Z,6.77
2019-01-14T18:13:20.469Z,7.47
2019-01-14T18:15:51.508Z,6.07
2019-01-14T18:18:21.230Z,5.80
2019-01-14T18:20:51.163Z,6.53
2019-01-14T18:23:20.842Z,9.57
2019-01-14T18:25:50.459Z,8.53
2019-01-14T18:28:20.308Z,8.80
2019-01-14T18:30:50.196Z,11.20
2019-01-14T18:33:19.863Z,11.93
2019-01-14T18:35:49.649Z,7.20
2019-01-14T18:38:19.521Z,9.50
2019-01-14T18:40:49.293Z,8.30
2019-01-14T18:43:19.020Z,15.07
2019-01-14T18:45:48.591Z,15.93
2019-01-14T18:48:18.469Z,24.17
2019-01-14T18:50:48.760Z,19.87
2019-01-14T18:53:18.296Z,18.70
2019-01-14T18:55:47.986Z,14.53
2019-01-14T18:58:17.701Z,11.67
2019-01-14T19:00:47.724Z,9.80
2019-01-14T19:03:18.437Z,17.23
2019-01-14T19:05:48.223Z,19.27
2019-01-14T19:08:18.139Z,23.27
2019-01-14T19:10:54.148Z,12.50
2019-01-14T19:13:19.155Z,10.43
2019-01-14T19:15:48.813Z,21.17
2019-01-14T19:18:19.633Z,28.97
2019-01-14T19:20:49.490Z,35.23
2019-01-14T19:23:19.227Z,31.60
2019-01-14T19:25:52.716Z,32.87
2019-01-14T19:28:22.446Z,16.40
2019-01-14T19:30:52.272Z,10.57
2019-01-14T19:33:22.289Z,8.33
2019-01-14T19:35:51.858Z,21.27
2019-01-14T19:38:23.146Z,26.23
2019-01-14T19:40:52.956Z,41.73
2019-01-14T19:43:22.719Z,43.40
2019-01-14T19:45:52.302Z,34.17
2019-01-14T19:48:21.912Z,64.67
2019-01-14T19:50:51.651Z,28.53
2019-01-14T19:53:21.336Z,37.53
2019-01-14T19:55:51.045Z,29.13
2019-01-14T19:58:20.761Z,23.13
2019-01-14T20:00:50.483Z,13.30
2019-01-14T20:03:19.950Z,9.40
2019-01-14T20:05:49.348Z,8.30
2019-01-14T20:08:19.662Z,11.50
2019-01-14T20:10:49.877Z,13.47
2019-01-14T20:13:19.420Z,8.83
2019-01-14T20:15:49.284Z,9.37
2019-01-14T20:18:19.059Z,5.80
2019-01-14T20:20:48.558Z,5.20
2019-01-14T20:23:18.181Z,9.43
2019-01-14T20:25:47.584Z,7.87
2019-01-14T20:28:17.120Z,7.33
2019-01-14T20:30:46.585Z,6.63
2019-01-14T20:33:16.147Z,6.43
2019-01-14T20:35:45.634Z,8.13
2019-01-14T20:38:15.587Z,7.00
2019-01-14T20:40:44.980Z,8.00
2019-01-14T20:43:14.547Z,6.70
2019-01-14T20:45:44.443Z,11.23
2019-01-14T20:48:14.155Z,7.40
2019-01-14T20:50:43.540Z,7.27
2019-01-14T20:53:13.852Z,7.83
2019-01-14T20:55:43.608Z,7.83
2019-01-14T20:58:13.524Z,8.27
2019-01-14T21:00:43.257Z,11.13
2019-01-14T21:03:13.042Z,9.10
2019-01-14T21:05:42.750Z,10.80
2019-01-14T21:08:12.674Z,13.27
2019-01-14T21:10:42.279Z,20.93
2019-01-14T21:13:12.047Z,9.97
2019-01-14T21:15:41.620Z,10.23
2019-01-14T21:18:11.085Z,9.77
2019-01-14T21:20:41.107Z,9.50
2019-01-14T21:23:10.882Z,9.00
2019-01-14T21:25:40.511Z,12.20
2019-01-14T21:28:10.112Z,11.47
2019-01-14T21:30:40.156Z,15.00
2019-01-14T21:33:09.668Z,13.70
2019-01-14T21:35:39.117Z,14.07
2019-01-14T21:38:08.982Z,16.97
2019-01-14T21:40:38.616Z,21.53
2019-01-14T21:43:08.494Z,10.43
2019-01-14T21:45:38.449Z,10.47
2019-01-14T21:48:08.218Z,8.53
2019-01-14T21:50:37.912Z,9.33
2019-01-14T21:53:07.855Z,12.93
2019-01-14T21:55:37.737Z,10.80
2019-01-14T21:58:07.857Z,11.87
2019-01-14T22:00:37.423Z,12.83
2019-01-14T22:03:06.888Z,10.30
2019-01-14T22:05:36.591Z,11.77
2019-01-14T22:08:06.406Z,9.23
2019-01-14T22:10:36.131Z,13.43
2019-01-14T22:13:05.701Z,12.03
2019-01-14T22:15:35.456Z,10.33
2019-01-14T22:18:05.499Z,7.03
2019-01-14T22:20:35.246Z,7.33
2019-01-14T22:23:04.964Z,7.53
2019-01-14T22:25:34.875Z,9.83
2019-01-14T22:28:04.757Z,7.33
2019-01-14T22:30:35.335Z,10.53
2019-01-14T22:33:05.110Z,10.43
2019-01-14T22:35:34.635Z,10.23
2019-01-14T22:38:04.092Z,10.73
2019-01-14T22:40:33.852Z,10.53
2019-01-14T22:43:04.366Z,12.40
2019-01-14T22:45:34.190Z,10.43
2019-01-14T22:48:03.602Z,11.77
2019-01-14T22:50:33.105Z,11.10
2019-01-14T22:53:02.965Z,19.17
2019-01-14T22:55:32.383Z,10.43
2019-01-14T22:58:02.021Z,13.53
2019-01-14T23:01:08.064Z,15.70
2019-01-14T23:03:38.310Z,7.80
2019-01-14T23:06:07.813Z,8.83
2019-01-14T23:08:37.208Z,8.10
2019-01-14T23:11:06.944Z,9.03
2019-01-14T23:13:36.665Z,10.87
2019-01-14T23:16:06.628Z,8.03
2019-01-14T23:18:36.386Z,8.73
2019-01-14T23:21:05.876Z,8.10
2019-01-14T23:23:35.670Z,8.43
2019-01-14T23:26:05.333Z,7.47
2019-01-14T23:28:34.933Z,9.93
2019-01-14T23:31:04.610Z,8.43
2019-01-14T23:33:34.241Z,8.43
2019-01-14T23:36:04.947Z,7.97
2019-01-14T23:38:34.765Z,7.30
2019-01-14T23:41:04.673Z,6.17
2019-01-14T23:43:34.275Z,8.53
2019-01-14T23:46:03.855Z,8.53
2019-01-14T23:48:33.403Z,7.83
2019-01-14T23:51:03.066Z,8.17
2019-01-14T23:53:32.828Z,8.13
2019-01-14T23:56:02.522Z,7.43
2019-01-14T23:58:32.192Z,6.97
